createdAt,value
2022-11-29T00:01:36.924Z,53.78
2022-11-29T00:04:05.654Z,54.83
2022-11-29T00:06:34.993Z,56.97
2022-11-29T00:09:07.288Z,59.28
2022-11-29T00:11:56.023Z,51.03
2022-11-29T00:14:25.240Z,61.83
2022-11-29T00:16:56.544Z,54.83
2022-11-29T00:19:24.498Z,55.78
2022-11-29T00:21:52.452Z,59.88
2022-11-29T00:24:20.341Z,54.28
2022-11-29T00:26:48.688Z,61.47
2022-11-29T00:29:16.971Z,66.78
2022-11-29T00:31:45.753Z,63.33
2022-11-29T00:34:13.930Z,61.38
2022-11-29T00:36:41.818Z,58.78
2022-11-29T00:39:11.787Z,59.03
2022-11-29T00:41:40.445Z,67.43
2022-11-29T00:44:09.129Z,70.00
2022-11-29T00:46:37.370Z,70.47
2022-11-29T00:49:05.635Z,61.28
2022-11-29T00:51:33.802Z,76.47
2022-11-29T00:54:01.699Z,68.97
2022-11-29T00:56:29.753Z,70.90
2022-11-29T00:58:57.619Z,66.97
2022-11-29T01:01:25.767Z,64.80
2022-11-29T01:03:53.663Z,64.45
2022-11-29T01:06:21.520Z,63.70
2022-11-29T01:08:49.561Z,62.47
2022-11-29T01:11:23.182Z,70.25
2022-11-29T01:13:55.003Z,63.53
2022-11-29T01:16:23.733Z,60.38
2022-11-29T01:18:51.630Z,71.15
2022-11-29T01:21:23.150Z,67.07
2022-11-29T01:23:53.138Z,60.20
2022-11-29T01:26:27.687Z,62.85
2022-11-29T01:28:56.861Z,57.67
2022-11-29T01:31:28.338Z,58.08
2022-11-29T01:33:57.909Z,59.50
2022-11-29T01:36:26.665Z,61.85
2022-11-29T01:38:54.832Z,66.40
2022-11-29T01:41:28.563Z,63.72
2022-11-29T01:44:14.321Z,56.70
2022-11-29T01:46:46.630Z,57.83
2022-11-29T01:49:52.729Z,59.70
2022-11-29T01:54:57.904Z,54.30
2022-11-29T01:57:26.624Z,57.88
2022-11-29T02:00:00.616Z,57.88
2022-11-29T02:02:44.356Z,62.08
2022-11-29T02:05:15.077Z,57.85
2022-11-29T02:07:46.540Z,60.92
2022-11-29T02:10:15.699Z,68.28
2022-11-29T02:13:32.351Z,58.72
2022-11-29T02:16:12.922Z,68.53
2022-11-29T02:18:41.431Z,63.42
2022-11-29T02:21:25.830Z,72.97
2022-11-29T02:24:34.969Z,65.95
2022-11-29T02:27:31.096Z,69.72
2022-11-29T02:30:21.944Z,56.47
2022-11-29T02:33:10.637Z,61.97
2022-11-29T02:36:14.195Z,67.95
2022-11-29T02:39:00.931Z,75.28
2022-11-29T02:41:43.565Z,60.60
2022-11-29T02:44:28.717Z,75.03
2022-11-29T02:47:05.456Z,68.15
2022-11-29T02:54:24.475Z,67.45
2022-11-29T02:57:07.282Z,64.10
2022-11-29T02:59:59.439Z,72.80
2022-11-29T03:02:35.503Z,75.68
2022-11-29T03:05:33.415Z,72.85
2022-11-29T03:08:35.469Z,65.90
2022-11-29T03:11:09.181Z,76.68
2022-11-29T03:14:08.685Z,77.25
2022-11-29T03:17:08.562Z,81.03
2022-11-29T03:19:55.165Z,70.57
2022-11-29T03:22:45.598Z,71.85
2022-11-29T03:25:22.520Z,70.70
2022-11-29T03:28:06.460Z,69.60
2022-11-29T03:30:38.347Z,56.55
2022-11-29T03:33:31.747Z,66.53
2022-11-29T03:36:35.547Z,74.85
2022-11-29T03:39:08.001Z,59.67
2022-11-29T03:41:49.884Z,73.57
2022-11-29T03:44:25.286Z,70.25
2022-11-29T03:47:17.219Z,72.68
2022-11-29T03:50:09.643Z,62.92
2022-11-29T03:53:12.760Z,70.30
2022-11-29T03:55:55.345Z,78.80
2022-11-29T03:59:05.346Z,64.28
2022-11-29T04:02:14.920Z,64.30
2022-11-29T04:05:16.662Z,63.00
2022-11-29T04:08:09.252Z,67.85
2022-11-29T04:11:02.023Z,69.80
2022-11-29T04:13:57.984Z,68.68
2022-11-29T04:16:44.689Z,71.85
2022-11-29T04:19:34.063Z,69.80
2022-11-29T04:22:27.638Z,75.32
2022-11-29T04:25:07.381Z,76.60
2022-11-29T04:27:41.386Z,77.25
2022-11-29T04:30:20.434Z,65.40
2022-11-29T04:32:55.268Z,71.22
2022-11-29T04:35:50.990Z,68.05
2022-11-29T04:41:30.449Z,55.15
2022-11-29T04:44:20.942Z,69.85
2022-11-29T04:47:36.941Z,84.05
2022-11-29T04:50:18.016Z,73.85
2022-11-29T04:53:23.098Z,93.93
2022-11-29T04:56:19.073Z,75.10
2022-11-29T04:59:29.391Z,78.65
2022-11-29T05:02:06.746Z,76.80
2022-11-29T05:04:54.175Z,100.78
2022-11-29T05:07:32.912Z,79.63
2022-11-29T05:10:35.119Z,73.88
2022-11-29T05:13:31.791Z,96.97
2022-11-29T05:16:34.107Z,98.53
2022-11-29T05:19:29.151Z,77.70
2022-11-29T05:22:13.440Z,82.10
2022-11-29T05:25:04.412Z,64.70
2022-11-29T05:27:50.582Z,85.03
2022-11-29T05:30:24.037Z,67.53
2022-11-29T05:33:32.844Z,80.65
2022-11-29T05:36:46.445Z,69.28
2022-11-29T05:39:36.571Z,58.45
2022-11-29T05:42:38.538Z,55.13
2022-11-29T05:45:19.514Z,55.15
2022-11-29T05:48:04.128Z,57.33
2022-11-29T05:50:39.041Z,55.08
2022-11-29T05:53:30.017Z,49.38
2022-11-29T05:56:09.834Z,55.08
2022-11-29T05:58:37.731Z,48.15
2022-11-29T06:01:26.611Z,50.50
2022-11-29T06:04:10.308Z,59.00
2022-11-29T06:06:59.731Z,55.25
2022-11-29T06:09:42.794Z,48.70
2022-11-29T06:12:21.301Z,48.60
2022-11-29T06:15:12.996Z,37.40
2022-11-29T06:18:06.808Z,33.42
2022-11-29T06:20:58.512Z,39.42
2022-11-29T06:23:41.255Z,43.15
2022-11-29T06:26:25.180Z,60.10
2022-11-29T06:29:13.675Z,47.90
2022-11-29T06:31:45.767Z,40.30
2022-11-29T06:34:30.855Z,44.05
2022-11-29T06:40:28.462Z,52.55
2022-11-29T06:43:00.774Z,69.40
2022-11-29T06:45:29.085Z,53.17
2022-11-29T06:48:04.560Z,44.85
2022-11-29T06:51:00.661Z,51.33
2022-11-29T06:53:47.023Z,46.42
2022-11-29T06:56:41.000Z,52.88
2022-11-29T06:59:29.435Z,59.80
2022-11-29T07:02:21.227Z,42.03
2022-11-29T07:04:57.689Z,42.97
2022-11-29T07:07:26.957Z,41.55
2022-11-29T07:09:59.520Z,43.92
2022-11-29T07:12:27.758Z,47.50
2022-11-29T07:14:57.704Z,35.20
2022-11-29T07:17:42.670Z,39.72
2022-11-29T07:20:17.938Z,53.30
2022-11-29T07:23:03.339Z,37.55
2022-11-29T07:28:48.052Z,38.17
2022-11-29T07:31:36.838Z,28.77
2022-11-29T07:34:28.662Z,31.77
2022-11-29T07:37:18.048Z,40.08
2022-11-29T07:40:09.624Z,34.72
2022-11-29T07:43:05.493Z,29.98
2022-11-29T07:45:36.775Z,38.38
2022-11-29T07:48:05.648Z,32.70
2022-11-29T07:50:35.150Z,33.72
2022-11-29T07:53:03.439Z,34.80
2022-11-29T07:55:34.302Z,35.50
2022-11-29T07:58:02.145Z,35.47
2022-11-29T08:00:29.933Z,33.40
2022-11-29T08:02:57.693Z,40.13
2022-11-29T08:05:25.427Z,32.95
2022-11-29T08:07:55.895Z,40.78
2022-11-29T08:10:23.770Z,32.17
2022-11-29T08:12:52.791Z,30.52
2022-11-29T08:15:23.067Z,31.58
2022-11-29T08:17:51.079Z,30.55
2022-11-29T08:20:19.309Z,31.88
2022-11-29T08:22:58.366Z,30.48
2022-11-29T08:25:27.701Z,27.80
2022-11-29T08:27:56.026Z,32.92
2022-11-29T08:30:24.273Z,33.70
2022-11-29T08:32:52.780Z,31.58
2022-11-29T08:35:22.921Z,33.45
2022-11-29T08:37:51.346Z,33.38
2022-11-29T08:40:19.210Z,27.20
2022-11-29T08:42:47.011Z,29.42
2022-11-29T08:45:14.792Z,29.40
2022-11-29T08:47:42.923Z,33.60
2022-11-29T08:50:14.986Z,28.33
2022-11-29T08:53:03.842Z,32.10
2022-11-29T08:55:42.724Z,32.10
2022-11-29T08:58:13.840Z,28.60
2022-11-29T09:00:46.933Z,24.30
2022-11-29T09:03:34.580Z,28.45
2022-11-29T09:06:12.686Z,24.25
2022-11-29T09:08:43.752Z,21.20
2022-11-29T09:11:19.755Z,27.73
2022-11-29T09:13:51.239Z,28.23
2022-11-29T09:16:22.473Z,27.90
2022-11-29T09:18:55.811Z,23.65
2022-11-29T09:21:29.306Z,23.45
2022-11-29T09:24:02.305Z,26.88
2022-11-29T09:26:33.087Z,25.42
2022-11-29T09:29:04.793Z,24.88
2022-11-29T09:31:33.918Z,28.55
2022-11-29T09:34:01.822Z,32.08
2022-11-29T09:36:30.829Z,27.00
2022-11-29T09:39:02.565Z,30.88
2022-11-29T09:41:50.302Z,30.90
2022-11-29T09:44:43.614Z,30.20
2022-11-29T09:47:23.818Z,25.00
2022-11-29T09:50:23.364Z,27.65
2022-11-29T09:53:15.589Z,23.17
2022-11-29T09:56:05.733Z,25.92
2022-11-29T09:58:43.727Z,25.77
2022-11-29T10:01:18.948Z,28.73
2022-11-29T10:03:51.856Z,23.60
2022-11-29T10:06:43.172Z,26.50
2022-11-29T10:09:33.546Z,28.20
2022-11-29T10:12:35.057Z,21.35
2022-11-29T10:15:17.788Z,18.55
2022-11-29T10:17:54.536Z,21.98
2022-11-29T10:20:29.899Z,23.80
2022-11-29T10:23:06.142Z,23.10
2022-11-29T10:25:49.794Z,23.45
2022-11-29T10:28:21.527Z,22.08
2022-11-29T10:30:51.691Z,27.83
2022-11-29T10:33:41.349Z,25.20
2022-11-29T10:36:40.443Z,23.35
2022-11-29T10:39:46.414Z,22.73
2022-11-29T10:42:39.329Z,20.15
2022-11-29T10:45:19.403Z,21.92
2022-11-29T10:47:49.309Z,25.05
2022-11-29T10:50:28.671Z,24.67
2022-11-29T10:53:04.599Z,22.52
2022-11-29T10:55:59.002Z,25.95
2022-11-29T10:58:29.134Z,29.52
2022-11-29T11:01:08.975Z,25.88
2022-11-29T11:03:54.601Z,27.77
2022-11-29T11:06:28.133Z,27.35
2022-11-29T11:09:11.298Z,27.95
2022-11-29T11:11:39.724Z,26.38
2022-11-29T11:14:25.160Z,31.10
2022-11-29T11:17:15.343Z,30.08
2022-11-29T11:19:53.652Z,31.33
2022-11-29T11:22:23.706Z,34.22
2022-11-29T11:25:04.928Z,28.25
2022-11-29T11:27:37.175Z,31.25
2022-11-29T11:30:07.322Z,32.83
2022-11-29T11:32:35.170Z,33.65
2022-11-29T11:35:20.833Z,28.30
2022-11-29T11:37:57.550Z,28.05
2022-11-29T11:40:29.365Z,32.35
2022-11-29T11:43:00.294Z,25.75
2022-11-29T11:45:32.636Z,29.23
2022-11-29T11:48:21.177Z,28.05
2022-11-29T11:50:58.205Z,27.20
2022-11-29T11:53:36.435Z,28.38
2022-11-29T11:56:10.371Z,26.38
2022-11-29T11:58:45.645Z,26.63
2022-11-29T12:01:37.854Z,21.02
2022-11-29T12:04:22.788Z,23.85
2022-11-29T12:07:00.515Z,20.80
2022-11-29T12:09:49.496Z,20.90
2022-11-29T12:12:33.211Z,22.13
2022-11-29T12:15:18.408Z,24.05
2022-11-29T12:18:28.003Z,19.27
2022-11-29T12:21:05.213Z,24.90
2022-11-29T12:23:52.736Z,24.77
2022-11-29T12:29:31.596Z,29.90
2022-11-29T12:32:05.379Z,24.90
2022-11-29T12:35:03.698Z,23.52
2022-11-29T12:37:43.113Z,19.20
2022-11-29T12:40:38.603Z,18.23
2022-11-29T12:43:44.332Z,21.33
2022-11-29T12:46:26.135Z,22.88
2022-11-29T12:49:40.743Z,23.65
2022-11-29T12:52:28.931Z,23.77
2022-11-29T12:55:32.574Z,22.25
2022-11-29T12:58:15.352Z,20.25
2022-11-29T13:01:18.395Z,21.33
2022-11-29T13:03:58.474Z,20.38
2022-11-29T13:06:44.347Z,22.23
2022-11-29T13:09:24.572Z,24.77
2022-11-29T13:11:58.475Z,22.15
2022-11-29T13:14:54.172Z,23.80
2022-11-29T13:20:17.891Z,21.50
2022-11-29T13:22:53.991Z,20.63
2022-11-29T13:25:28.843Z,19.67
2022-11-29T13:30:27.687Z,18.52
2022-11-29T13:32:55.564Z,25.88
2022-11-29T13:35:44.528Z,25.83
2022-11-29T13:38:40.160Z,22.75
2022-11-29T13:44:19.458Z,19.10
2022-11-29T13:47:08.017Z,21.80
2022-11-29T13:50:02.614Z,22.58
2022-11-29T13:52:50.342Z,20.47
2022-11-29T13:55:29.528Z,21.88
2022-11-29T13:58:19.510Z,20.83
2022-11-29T14:00:47.310Z,16.60
2022-11-29T14:03:23.989Z,19.95
2022-11-29T14:06:05.439Z,19.85
2022-11-29T14:09:10.293Z,20.23
2022-11-29T14:11:25.408Z,19.05
2022-11-29T14:14:13.884Z,20.52
2022-11-29T14:16:43.817Z,16.52
2022-11-29T14:19:12.128Z,16.50
2022-11-29T14:21:58.784Z,16.02
2022-11-29T14:24:35.994Z,19.65
2022-11-29T14:27:09.975Z,21.05
2022-11-29T14:29:50.232Z,19.35
2022-11-29T14:32:21.170Z,16.08
2022-11-29T14:35:13.493Z,16.77
2022-11-29T14:37:59.921Z,16.60
2022-11-29T14:40:51.311Z,21.75
2022-11-29T14:43:23.691Z,13.90
2022-11-29T14:46:29.182Z,13.90
2022-11-29T14:48:57.073Z,18.42
2022-11-29T14:51:28.466Z,17.70
2022-11-29T14:54:30.537Z,18.13
2022-11-29T14:56:58.410Z,22.15
2022-11-29T14:59:41.290Z,20.50
2022-11-29T15:02:18.040Z,16.38
2022-11-29T15:04:49.136Z,17.60
2022-11-29T15:07:24.060Z,15.75
2022-11-29T15:12:27.602Z,18.08
2022-11-29T15:15:10.971Z,21.42
2022-11-29T15:17:51.143Z,20.10
2022-11-29T15:20:50.872Z,19.70
2022-11-29T15:23:19.951Z,19.80
2022-11-29T15:25:53.988Z,22.45
2022-11-29T15:28:31.662Z,25.33
2022-11-29T15:31:05.162Z,23.63
2022-11-29T15:33:36.035Z,24.38
2022-11-29T15:36:07.157Z,24.60
2022-11-29T15:38:52.043Z,21.65
2022-11-29T15:41:27.271Z,22.85
2022-11-29T15:44:06.021Z,25.33
2022-11-29T15:46:35.957Z,24.05
2022-11-29T15:49:23.975Z,23.02
2022-11-29T15:51:59.995Z,21.52
2022-11-29T15:54:34.583Z,21.02
2022-11-29T15:57:17.252Z,21.75
2022-11-29T15:59:53.735Z,25.15
2022-11-29T16:02:30.210Z,29.90
2022-11-29T16:05:14.934Z,26.83
2022-11-29T16:07:45.562Z,27.23
2022-11-29T16:10:20.634Z,21.25
2022-11-29T16:13:00.814Z,23.83
2022-11-29T16:15:32.891Z,25.40
2022-11-29T16:18:13.489Z,26.70
2022-11-29T16:20:41.385Z,24.33
2022-11-29T16:23:15.335Z,24.77
2022-11-29T16:26:04.635Z,27.65
2022-11-29T16:28:36.425Z,26.42
2022-11-29T16:31:05.530Z,22.00
2022-11-29T16:33:33.443Z,24.70
2022-11-29T16:36:22.422Z,25.65
2022-11-29T16:38:56.103Z,21.05
2022-11-29T16:41:36.132Z,22.90
2022-11-29T16:44:05.760Z,25.15
2022-11-29T16:46:39.046Z,27.58
2022-11-29T16:49:33.695Z,22.17
2022-11-29T16:52:02.363Z,26.05
2022-11-29T16:54:34.066Z,25.52
2022-11-29T16:57:06.508Z,24.80
2022-11-29T16:59:35.230Z,27.83
2022-11-29T17:02:03.151Z,24.70
2022-11-29T17:04:30.964Z,24.83
2022-11-29T17:06:59.493Z,24.67
2022-11-29T17:09:30.740Z,24.92
2022-11-29T17:12:01.546Z,24.45
2022-11-29T17:14:31.153Z,24.63
2022-11-29T17:17:02.506Z,25.67
2022-11-29T17:19:32.236Z,26.88
2022-11-29T17:22:00.448Z,32.55
2022-11-29T17:24:31.574Z,23.30
2022-11-29T17:27:01.357Z,22.75
2022-11-29T17:29:29.168Z,21.13
2022-11-29T17:31:57.167Z,22.40
2022-11-29T17:34:25.992Z,20.75
2022-11-29T17:36:53.744Z,23.73
2022-11-29T17:39:22.629Z,22.33
2022-11-29T17:41:50.414Z,24.70
2022-11-29T17:44:18.230Z,23.42
2022-11-29T17:46:46.110Z,19.58
2022-11-29T17:49:13.842Z,26.27
2022-11-29T17:51:57.032Z,24.23
2022-11-29T17:54:25.290Z,24.45
2022-11-29T17:56:55.292Z,25.80
2022-11-29T17:59:35.319Z,23.40
2022-11-29T18:02:09.098Z,25.70
2022-11-29T18:04:37.553Z,27.33
2022-11-29T18:07:05.537Z,25.05
2022-11-29T18:09:33.548Z,27.58
2022-11-29T18:12:02.656Z,25.58
2022-11-29T18:14:34.190Z,27.10
2022-11-29T18:17:02.122Z,25.38
2022-11-29T18:19:32.683Z,28.65
2022-11-29T18:22:02.709Z,30.67
2022-11-29T18:24:30.758Z,31.90
2022-11-29T18:26:59.151Z,29.77
2022-11-29T18:29:37.516Z,29.90
2022-11-29T18:32:07.303Z,29.10
2022-11-29T18:34:37.488Z,29.17
2022-11-29T18:37:09.899Z,31.70
2022-11-29T18:39:42.153Z,31.63
2022-11-29T18:42:10.125Z,31.00
2022-11-29T18:44:38.242Z,30.15
2022-11-29T18:47:06.151Z,31.98
2022-11-29T18:49:34.485Z,27.02
2022-11-29T18:52:02.535Z,34.40
2022-11-29T18:54:31.899Z,31.63
2022-11-29T18:57:00.223Z,34.45
2022-11-29T18:59:28.161Z,32.85
2022-11-29T19:01:56.697Z,37.28
2022-11-29T19:04:24.628Z,29.17
2022-11-29T19:06:52.755Z,30.35
2022-11-29T19:09:46.027Z,39.17
2022-11-29T19:12:14.029Z,37.45
2022-11-29T19:14:48.143Z,33.50
2022-11-29T19:17:22.691Z,31.42
2022-11-29T19:19:50.663Z,34.28
2022-11-29T19:22:20.604Z,33.97
2022-11-29T19:24:49.789Z,35.17
2022-11-29T19:27:17.711Z,38.92
2022-11-29T19:29:46.090Z,32.50
2022-11-29T19:32:15.316Z,33.13
2022-11-29T19:34:50.511Z,38.63
2022-11-29T19:37:20.460Z,38.05
2022-11-29T19:39:49.177Z,33.17
2022-11-29T19:42:18.017Z,41.00
2022-11-29T19:45:15.531Z,32.92
2022-11-29T19:47:35.307Z,37.63
2022-11-29T19:50:03.727Z,30.27
2022-11-29T19:52:37.348Z,31.27
2022-11-29T19:55:05.582Z,48.10
2022-11-29T19:57:59.066Z,34.22
2022-11-29T20:00:37.368Z,36.28
2022-11-29T20:03:05.349Z,24.17
2022-11-29T20:05:34.462Z,27.63
2022-11-29T20:08:02.627Z,25.75
2022-11-29T20:10:30.583Z,42.85
2022-11-29T20:12:58.553Z,24.10
2022-11-29T20:15:27.092Z,30.27
2022-11-29T20:17:55.625Z,33.25
2022-11-29T20:20:23.925Z,19.13
2022-11-29T20:22:53.150Z,27.25
2022-11-29T20:25:22.377Z,61.50
2022-11-29T20:27:53.802Z,25.98
2022-11-29T20:30:27.369Z,20.40
2022-11-29T20:32:55.558Z,31.63
2022-11-29T20:35:59.706Z,21.08
2022-11-29T20:39:05.752Z,20.48
2022-11-29T20:44:27.351Z,19.23
2022-11-29T20:46:55.677Z,22.85
2022-11-29T20:49:23.844Z,54.78
2022-11-29T20:52:05.500Z,30.88
2022-11-29T20:54:33.865Z,18.58
2022-11-29T20:57:06.328Z,46.13
2022-11-29T20:59:34.320Z,140.38
2022-11-29T21:02:53.210Z,23.38
2022-11-29T21:05:21.120Z,21.70
2022-11-29T21:07:49.248Z,27.60
2022-11-29T21:10:19.286Z,18.17
2022-11-29T21:12:53.377Z,22.67
2022-11-29T21:15:21.731Z,18.92
2022-11-29T21:17:52.034Z,27.65
2022-11-29T21:20:23.994Z,23.20
2022-11-29T21:23:26.247Z,21.67
2022-11-29T21:26:11.506Z,59.28
2022-11-29T21:29:06.648Z,30.77
2022-11-29T21:31:37.406Z,25.30
2022-11-29T21:34:12.070Z,22.77
2022-11-29T21:36:40.839Z,24.73
2022-11-29T21:39:14.839Z,21.67
2022-11-29T21:41:45.515Z,21.80
2022-11-29T21:44:18.286Z,22.75
2022-11-29T21:46:46.661Z,22.10
2022-11-29T21:49:14.733Z,23.13
2022-11-29T21:51:46.076Z,20.92
2022-11-29T21:54:15.434Z,22.08
2022-11-29T21:56:48.354Z,20.27
2022-11-29T21:59:16.349Z,22.40
2022-11-29T22:01:44.867Z,23.23
2022-11-29T22:04:13.945Z,27.33
2022-11-29T22:06:42.243Z,23.55
2022-11-29T22:09:11.251Z,22.27
2022-11-29T22:11:39.596Z,22.17
2022-11-29T22:14:14.048Z,22.77
2022-11-29T22:16:50.534Z,25.10
2022-11-29T22:19:35.538Z,23.55
2022-11-29T22:22:05.969Z,22.00
2022-11-29T22:24:36.847Z,25.88
2022-11-29T22:27:04.934Z,21.50
2022-11-29T22:29:32.749Z,22.85
2022-11-29T22:32:01.212Z,22.15
2022-11-29T22:34:31.381Z,23.55
2022-11-29T22:36:59.187Z,23.92
2022-11-29T22:39:27.236Z,25.38
2022-11-29T22:41:55.467Z,23.40
2022-11-29T22:44:24.427Z,21.83
2022-11-29T22:46:52.602Z,26.55
2022-11-29T22:49:24.232Z,35.15
2022-11-29T22:51:52.435Z,30.85
2022-11-29T22:54:22.328Z,25.65
2022-11-29T22:56:52.508Z,22.73
2022-11-29T22:59:24.015Z,24.13
2022-11-29T23:01:53.939Z,22.45
2022-11-29T23:04:22.123Z,23.38
2022-11-29T23:06:50.103Z,23.15
2022-11-29T23:09:22.293Z,24.98
2022-11-29T23:11:55.982Z,24.92
2022-11-29T23:14:24.399Z,22.85
2022-11-29T23:16:53.075Z,22.13
2022-11-29T23:19:23.151Z,23.67
2022-11-29T23:21:52.121Z,22.63
2022-11-29T23:24:20.598Z,24.00
2022-11-29T23:26:48.438Z,24.20
2022-11-29T23:29:18.848Z,26.90
2022-11-29T23:31:47.295Z,22.83
2022-11-29T23:34:16.094Z,23.05
2022-11-29T23:36:46.999Z,23.73
2022-11-29T23:39:17.659Z,24.95
2022-11-29T23:41:47.424Z,23.00
2022-11-29T23:44:15.382Z,22.05
2022-11-29T23:46:43.277Z,23.83
2022-11-29T23:49:13.190Z,22.80
2022-11-29T23:51:40.992Z,26.08
2022-11-29T23:54:09.024Z,24.88
2022-11-29T23:56:36.790Z,25.48
2022-11-29T23:59:04.839Z,23.98
